createdAt,value
2023-04-03T00:01:36.172Z,22.42
2023-04-03T00:04:06.891Z,23.33
2023-04-03T00:06:36.119Z,23.33
2023-04-03T00:09:04.636Z,21.50
2023-04-03T00:11:33.049Z,19.30
2023-04-03T00:14:01.160Z,21.38
2023-04-03T00:16:29.694Z,19.65
2023-04-03T00:18:58.287Z,20.88
2023-04-03T00:21:27.834Z,22.55
2023-04-03T00:23:55.964Z,21.67
2023-04-03T00:26:24.731Z,20.98
2023-04-03T00:28:52.846Z,20.30
2023-04-03T00:31:21.431Z,18.40
2023-04-03T00:33:50.108Z,19.38
2023-04-03T00:36:18.398Z,20.58
2023-04-03T00:38:47.981Z,20.48
2023-04-03T00:41:16.808Z,18.30
2023-04-03T00:43:44.922Z,19.38
2023-04-03T00:46:13.357Z,19.38
2023-04-03T00:48:44.931Z,19.48
2023-04-03T00:51:16.877Z,19.00
2023-04-03T00:53:50.194Z,16.30
2023-04-03T00:56:22.776Z,17.42
2023-04-03T00:58:54.942Z,17.37
2023-04-03T01:01:25.885Z,18.55
2023-04-03T01:03:54.608Z,18.40
2023-04-03T01:06:27.452Z,19.58
2023-04-03T01:08:57.762Z,17.90
2023-04-03T01:11:26.160Z,18.50
2023-04-03T01:13:54.679Z,17.20
2023-04-03T01:16:23.072Z,17.52
2023-04-03T01:18:51.419Z,20.33
2023-04-03T01:21:57.295Z,16.85
2023-04-03T01:24:35.971Z,20.13
2023-04-03T01:27:06.907Z,16.75
2023-04-03T01:29:35.271Z,17.73
2023-04-03T01:32:06.517Z,17.98
2023-04-03T01:34:34.907Z,15.20
2023-04-03T01:37:03.152Z,15.82
2023-04-03T01:39:31.578Z,14.63
2023-04-03T01:42:00.731Z,14.80
2023-04-03T01:44:28.954Z,19.13
2023-04-03T01:46:57.388Z,15.68
2023-04-03T01:49:27.301Z,14.45
2023-04-03T01:51:55.636Z,15.75
2023-04-03T01:54:24.062Z,16.75
2023-04-03T01:56:52.325Z,13.70
2023-04-03T01:59:20.589Z,18.65
2023-04-03T02:01:49.054Z,18.02
2023-04-03T02:04:17.546Z,16.33
2023-04-03T02:06:47.136Z,16.00
2023-04-03T02:09:15.605Z,17.05
2023-04-03T02:11:44.211Z,13.90
2023-04-03T02:14:12.441Z,16.48
2023-04-03T02:16:40.969Z,14.57
2023-04-03T02:19:09.596Z,15.02
2023-04-03T02:21:37.747Z,13.65
2023-04-03T02:24:08.083Z,15.52
2023-04-03T02:26:36.428Z,16.52
2023-04-03T02:29:04.840Z,15.02
2023-04-03T02:31:33.303Z,12.65
2023-04-03T02:34:01.774Z,15.85
2023-04-03T02:36:31.791Z,14.63
2023-04-03T02:39:01.272Z,13.35
2023-04-03T02:41:36.154Z,14.07
2023-04-03T02:44:05.718Z,13.27
2023-04-03T02:46:34.143Z,14.48
2023-04-03T02:49:02.777Z,13.77
2023-04-03T02:51:31.237Z,14.95
2023-04-03T02:53:59.431Z,13.18
2023-04-03T02:56:28.009Z,13.63
2023-04-03T02:58:57.712Z,14.30
2023-04-03T03:01:26.599Z,13.00
2023-04-03T03:03:54.920Z,14.90
2023-04-03T03:06:23.178Z,14.07
2023-04-03T03:08:51.365Z,16.42
2023-04-03T03:11:19.664Z,14.00
2023-04-03T03:13:47.934Z,13.98
2023-04-03T03:16:17.656Z,13.90
2023-04-03T03:18:45.988Z,14.10
2023-04-03T03:21:14.490Z,13.60
2023-04-03T03:23:42.736Z,12.43
2023-04-03T03:26:13.163Z,14.27
2023-04-03T03:28:42.575Z,16.20
2023-04-03T03:31:13.566Z,13.70
2023-04-03T03:33:43.639Z,14.65
2023-04-03T03:36:12.899Z,14.82
2023-04-03T03:38:41.380Z,13.50
2023-04-03T03:41:09.949Z,15.50
2023-04-03T03:43:38.137Z,15.25
2023-04-03T03:46:06.854Z,16.15
2023-04-03T03:48:35.297Z,14.13
2023-04-03T03:51:05.083Z,16.15
2023-04-03T03:53:33.411Z,15.15
2023-04-03T03:56:01.957Z,16.38
2023-04-03T03:58:30.139Z,15.40
2023-04-03T04:00:58.424Z,14.40
2023-04-03T04:03:26.963Z,16.30
2023-04-03T04:05:55.839Z,12.38
2023-04-03T04:08:25.624Z,13.82
2023-04-03T04:10:54.101Z,15.25
2023-04-03T04:13:22.892Z,15.93
2023-04-03T04:15:51.563Z,17.00
2023-04-03T04:18:21.160Z,17.38
2023-04-03T04:20:49.521Z,17.05
2023-04-03T04:23:18.219Z,16.88
2023-04-03T04:25:48.596Z,16.08
2023-04-03T04:28:17.418Z,15.27
2023-04-03T04:30:46.417Z,16.05
2023-04-03T04:33:15.267Z,16.05
2023-04-03T04:35:44.924Z,17.33
2023-04-03T04:38:13.641Z,14.27
2023-04-03T04:40:42.525Z,14.70
2023-04-03T04:43:15.621Z,15.10
2023-04-03T04:45:44.044Z,15.38
2023-04-03T04:48:12.221Z,15.18
2023-04-03T05:10:30.366Z,18.88
2023-04-03T05:24:55.327Z,16.75
2023-04-03T05:27:25.640Z,18.27
2023-04-03T05:29:55.510Z,17.92
2023-04-03T05:32:24.278Z,20.63
2023-04-03T05:34:52.737Z,20.65
2023-04-03T05:37:21.369Z,17.13
